RYR278 LPPT-LEXJ
Flight info
| Callsign | RYR278 |
|---|---|
| Flight time | 1h 7m |
| Altitude | 36000 |
| Route | IXIDA1S IXIDA DCT TOSDI N745 ZMR DCT EMANU EMANU4F |
| Aircraft | B738/M-SDE2E3FGHIRWXY/LB1 |
Departure
| Time | 2026-05-08 16:14 |
|---|---|
| Airport | Lisbon Humberto Delgado Airport (LPPT) |
Arrival
| Time | 2026-05-08 17:21 |
|---|---|
| Airport | Seve Ballesteros-Santander Airport (LEXJ) |
| Time | Latitude | Longitude | Altitude | Speed | Heading |
|---|---|---|---|---|---|
| 2026-05-08 15:57 | 38.77548 | -9.13179 | 346 ft | 0 kts | 75° |
| 2026-05-08 16:06 | 38.77546 | -9.13189 | 346 ft | 4 kts | 75° |
| 2026-05-08 16:06 | 38.77539 | -9.13222 | 351 ft | 4 kts | 75° |
| 2026-05-08 16:06 | 38.77531 | -9.13255 | 355 ft | 4 kts | 68° |
| 2026-05-08 16:07 | 38.77519 | -9.13285 | 357 ft | 4 kts | 46° |
| 2026-05-08 16:07 | 38.77500 | -9.13298 | 353 ft | 2 kts | 349° |
| 2026-05-08 16:07 | 38.77498 | -9.13298 | 353 ft | 1 kts | 347° |
| 2026-05-08 16:10 | 38.77500 | -9.13298 | 346 ft | 2 kts | 347° |
| 2026-05-08 16:10 | 38.77552 | -9.13313 | 346 ft | 14 kts | 347° |
| 2026-05-08 16:10 | 38.77649 | -9.13318 | 355 ft | 14 kts | 1° |
| 2026-05-08 16:11 | 38.77754 | -9.13347 | 346 ft | 18 kts | 347° |
| 2026-05-08 16:11 | 38.77890 | -9.13381 | 346 ft | 22 kts | 347° |
| 2026-05-08 16:11 | 38.78057 | -9.13386 | 353 ft | 27 kts | 13° |
| 2026-05-08 16:11 | 38.78242 | -9.13296 | 354 ft | 30 kts | 22° |
| 2026-05-08 16:12 | 38.78384 | -9.13228 | 352 ft | 18 kts | 20° |
| 2026-05-08 16:12 | 38.78490 | -9.13238 | 346 ft | 13 kts | 339° |
| 2026-05-08 16:12 | 38.78511 | -9.13250 | 354 ft | 0 kts | 322° |
| 2026-05-08 16:13 | 38.78525 | -9.13266 | 350 ft | 7 kts | 313° |
| 2026-05-08 16:13 | 38.78523 | -9.13368 | 350 ft | 16 kts | 236° |
| 2026-05-08 16:13 | 38.78338 | -9.13483 | 353 ft | 59 kts | 202° |
| 2026-05-08 16:13 | 38.77748 | -9.13798 | 351 ft | 122 kts | 202° |
| 2026-05-08 16:14 | 38.76832 | -9.14295 | 624 ft | 146 kts | 203° |
| 2026-05-08 16:14 | 38.75897 | -9.14793 | 1420 ft | 145 kts | 200° |
| 2026-05-08 16:14 | 38.74980 | -9.15295 | 2206 ft | 145 kts | 200° |
| 2026-05-08 16:14 | 38.74026 | -9.15786 | 2915 ft | 143 kts | 199° |
| 2026-05-08 16:15 | 38.73093 | -9.16275 | 3550 ft | 150 kts | 199° |
| 2026-05-08 16:15 | 38.72038 | -9.16827 | 3793 ft | 181 kts | 200° |
| 2026-05-08 16:15 | 38.70796 | -9.17478 | 3967 ft | 205 kts | 200° |
| 2026-05-08 16:15 | 38.69386 | -9.18213 | 3994 ft | 233 kts | 200° |
| 2026-05-08 16:16 | 38.67810 | -9.19036 | 3979 ft | 252 kts | 200° |
| 2026-05-08 16:16 | 38.66238 | -9.20019 | 3989 ft | 252 kts | 214° |
| 2026-05-08 16:16 | 38.65062 | -9.21700 | 3997 ft | 257 kts | 237° |
| 2026-05-08 16:16 | 38.64688 | -9.23946 | 4001 ft | 266 kts | 273° |
| 2026-05-08 16:17 | 38.65327 | -9.26193 | 4098 ft | 275 kts | 293° |
| 2026-05-08 16:17 | 38.65898 | -9.27657 | 4482 ft | 278 kts | 291° |
| 2026-05-08 16:17 | 38.67430 | -9.30335 | 5595 ft | 288 kts | 322° |
| 2026-05-08 16:17 | 38.69255 | -9.31368 | 6339 ft | 297 kts | 349° |
| 2026-05-08 16:18 | 38.71307 | -9.31223 | 7052 ft | 298 kts | 21° |
| 2026-05-08 16:18 | 38.73118 | -9.29978 | 7827 ft | 296 kts | 36° |
| 2026-05-08 16:18 | 38.74848 | -9.28478 | 8485 ft | 303 kts | 37° |
| 2026-05-08 16:18 | 38.76588 | -9.26938 | 9310 ft | 304 kts | 37° |
| 2026-05-08 16:19 | 38.78351 | -9.25393 | 9966 ft | 310 kts | 37° |
| 2026-05-08 16:19 | 38.80191 | -9.23800 | 10261 ft | 330 kts | 36° |
| 2026-05-08 16:19 | 38.82160 | -9.22109 | 10533 ft | 348 kts | 36° |
| 2026-05-08 16:19 | 38.84195 | -9.20368 | 11107 ft | 355 kts | 36° |
| 2026-05-08 16:20 | 38.86102 | -9.18348 | 11774 ft | 356 kts | 49° |
| 2026-05-08 16:20 | 38.87750 | -9.16024 | 12521 ft | 358 kts | 51° |
| 2026-05-08 16:20 | 38.89394 | -9.13590 | 13222 ft | 363 kts | 52° |
| 2026-05-08 16:20 | 38.91060 | -9.11107 | 13950 ft | 367 kts | 51° |
| 2026-05-08 16:21 | 38.92744 | -9.08617 | 14647 ft | 371 kts | 51° |
| 2026-05-08 16:21 | 38.94456 | -9.06105 | 15305 ft | 376 kts | 51° |
| 2026-05-08 16:21 | 38.96199 | -9.03567 | 15986 ft | 381 kts | 50° |
| 2026-05-08 16:21 | 38.97960 | -9.01013 | 16654 ft | 385 kts | 50° |
| 2026-05-08 16:22 | 38.99751 | -8.98420 | 17289 ft | 390 kts | 50° |
| 2026-05-08 16:22 | 39.01568 | -8.95791 | 17935 ft | 395 kts | 50° |
| 2026-05-08 16:22 | 39.03397 | -8.93144 | 18506 ft | 399 kts | 50° |
| 2026-05-08 16:22 | 39.05258 | -8.90447 | 19067 ft | 403 kts | 50° |
| 2026-05-08 16:23 | 39.07133 | -8.87728 | 19638 ft | 407 kts | 50° |
| 2026-05-08 16:23 | 39.09023 | -8.84984 | 20189 ft | 411 kts | 50° |
| 2026-05-08 16:23 | 39.10934 | -8.82208 | 20722 ft | 416 kts | 50° |
| 2026-05-08 16:23 | 39.12837 | -8.79440 | 21259 ft | 420 kts | 50° |
| 2026-05-08 16:24 | 39.14779 | -8.76613 | 21793 ft | 424 kts | 50° |
| 2026-05-08 16:24 | 39.16744 | -8.73751 | 22302 ft | 428 kts | 50° |
| 2026-05-08 16:24 | 39.18730 | -8.70853 | 22818 ft | 432 kts | 50° |
| 2026-05-08 16:24 | 39.20726 | -8.67933 | 23316 ft | 436 kts | 50° |
| 2026-05-08 16:25 | 39.22738 | -8.64986 | 23747 ft | 440 kts | 50° |
| 2026-05-08 16:25 | 39.24769 | -8.62007 | 24191 ft | 442 kts | 49° |
| 2026-05-08 16:25 | 39.26808 | -8.59015 | 24620 ft | 445 kts | 49° |
| 2026-05-08 16:25 | 39.28864 | -8.55996 | 25025 ft | 449 kts | 49° |
| 2026-05-08 16:26 | 39.30931 | -8.52957 | 25434 ft | 452 kts | 49° |
| 2026-05-08 16:26 | 39.33010 | -8.49898 | 25848 ft | 454 kts | 49° |
| 2026-05-08 16:26 | 39.35103 | -8.46815 | 26252 ft | 457 kts | 49° |
| 2026-05-08 16:26 | 39.37205 | -8.43716 | 26661 ft | 460 kts | 49° |
| 2026-05-08 16:27 | 39.39319 | -8.40595 | 27052 ft | 463 kts | 49° |
| 2026-05-08 16:27 | 39.41448 | -8.37450 | 27431 ft | 466 kts | 49° |
| 2026-05-08 16:27 | 39.43565 | -8.34319 | 27806 ft | 469 kts | 48° |
| 2026-05-08 16:27 | 39.45719 | -8.31130 | 28159 ft | 472 kts | 48° |
| 2026-05-08 16:28 | 39.47893 | -8.27909 | 28509 ft | 475 kts | 48° |
| 2026-05-08 16:28 | 39.50076 | -8.24670 | 28844 ft | 478 kts | 48° |
| 2026-05-08 16:28 | 39.52269 | -8.21413 | 29178 ft | 481 kts | 48° |
| 2026-05-08 16:28 | 39.54474 | -8.18135 | 29512 ft | 484 kts | 47° |
| 2026-05-08 16:29 | 39.56692 | -8.14834 | 29830 ft | 487 kts | 47° |
| 2026-05-08 16:29 | 39.58904 | -8.11538 | 30080 ft | 490 kts | 47° |
| 2026-05-08 16:29 | 39.61146 | -8.08195 | 30331 ft | 493 kts | 47° |
| 2026-05-08 16:29 | 39.63400 | -8.04829 | 30591 ft | 495 kts | 47° |
| 2026-05-08 16:30 | 39.65662 | -8.01462 | 30861 ft | 497 kts | 46° |
| 2026-05-08 16:30 | 39.68051 | -7.98186 | 31140 ft | 498 kts | 43° |
| 2026-05-08 16:30 | 39.70514 | -7.95056 | 31480 ft | 497 kts | 41° |
| 2026-05-08 16:30 | 39.73028 | -7.91962 | 31837 ft | 496 kts | 41° |
| 2026-05-08 16:31 | 39.75557 | -7.88872 | 32187 ft | 496 kts | 41° |
| 2026-05-08 16:31 | 39.78065 | -7.85787 | 32494 ft | 496 kts | 41° |
| 2026-05-08 16:31 | 39.80566 | -7.82679 | 32811 ft | 497 kts | 41° |
| 2026-05-08 16:31 | 39.83056 | -7.79556 | 33150 ft | 497 kts | 41° |
| 2026-05-08 16:32 | 39.85534 | -7.76427 | 33513 ft | 496 kts | 41° |
| 2026-05-08 16:32 | 39.88002 | -7.73297 | 33808 ft | 496 kts | 42° |
| 2026-05-08 16:32 | 39.90442 | -7.70196 | 34056 ft | 496 kts | 41° |
| 2026-05-08 16:32 | 39.92912 | -7.67052 | 34362 ft | 494 kts | 42° |
| 2026-05-08 16:33 | 39.95367 | -7.63925 | 34692 ft | 492 kts | 41° |
| 2026-05-08 16:33 | 39.97811 | -7.60810 | 34965 ft | 492 kts | 41° |
| 2026-05-08 16:33 | 40.00256 | -7.57693 | 35207 ft | 492 kts | 41° |
| 2026-05-08 16:33 | 40.02700 | -7.54574 | 35489 ft | 491 kts | 41° |
| 2026-05-08 16:34 | 40.05142 | -7.51454 | 35770 ft | 489 kts | 41° |
| 2026-05-08 16:34 | 40.07577 | -7.48341 | 35829 ft | 493 kts | 41° |
| 2026-05-08 16:34 | 40.12481 | -7.42062 | 35839 ft | 492 kts | 41° |
| 2026-05-08 16:35 | 40.17335 | -7.35830 | 35850 ft | 487 kts | 41° |
| 2026-05-08 16:35 | 40.22163 | -7.29619 | 35837 ft | 485 kts | 41° |
| 2026-05-08 16:36 | 40.26964 | -7.23432 | 35852 ft | 484 kts | 41° |
| 2026-05-08 16:36 | 40.31754 | -7.17246 | 35860 ft | 483 kts | 41° |
| 2026-05-08 16:37 | 40.36510 | -7.11090 | 35849 ft | 483 kts | 41° |
| 2026-05-08 16:37 | 40.41291 | -7.04889 | 35856 ft | 483 kts | 41° |
| 2026-05-08 16:38 | 40.46065 | -6.98684 | 35856 ft | 484 kts | 41° |
| 2026-05-08 16:38 | 40.50855 | -6.92444 | 35856 ft | 484 kts | 41° |
| 2026-05-08 16:39 | 40.55640 | -6.86198 | 35849 ft | 484 kts | 41° |
| 2026-05-08 16:39 | 40.60378 | -6.79998 | 35854 ft | 484 kts | 41° |
| 2026-05-08 16:40 | 40.65166 | -6.73721 | 35855 ft | 484 kts | 41° |
| 2026-05-08 16:40 | 40.69935 | -6.67456 | 35852 ft | 483 kts | 41° |
| 2026-05-08 16:41 | 40.74683 | -6.61205 | 35864 ft | 483 kts | 41° |
| 2026-05-08 16:42 | 40.81810 | -6.51795 | 35863 ft | 482 kts | 41° |
| 2026-05-08 16:42 | 40.85754 | -6.46575 | 35867 ft | 482 kts | 41° |
| 2026-05-08 16:43 | 40.91291 | -6.39231 | 35869 ft | 482 kts | 41° |
| 2026-05-08 16:43 | 40.95988 | -6.32987 | 35865 ft | 481 kts | 41° |
| 2026-05-08 16:44 | 41.00745 | -6.26755 | 35867 ft | 479 kts | 38° |
| 2026-05-08 16:44 | 41.04846 | -6.21836 | 35873 ft | 478 kts | 37° |
| 2026-05-08 16:45 | 41.10641 | -6.15043 | 35874 ft | 478 kts | 37° |
| 2026-05-08 16:45 | 41.15598 | -6.09161 | 35880 ft | 478 kts | 37° |
| 2026-05-08 16:46 | 41.19738 | -6.04203 | 35887 ft | 478 kts | 37° |
| 2026-05-08 16:46 | 41.24637 | -5.98314 | 35878 ft | 478 kts | 37° |
| 2026-05-08 16:47 | 41.29554 | -5.92392 | 35889 ft | 477 kts | 37° |
| 2026-05-08 16:47 | 41.34477 | -5.86453 | 35882 ft | 476 kts | 37° |
| 2026-05-08 16:48 | 41.39372 | -5.80536 | 35888 ft | 475 kts | 37° |
| 2026-05-08 16:48 | 41.44248 | -5.74629 | 35880 ft | 474 kts | 37° |
| 2026-05-08 16:49 | 41.49096 | -5.68743 | 35881 ft | 472 kts | 37° |
| 2026-05-08 16:49 | 41.53943 | -5.62841 | 35882 ft | 471 kts | 37° |
| 2026-05-08 16:50 | 41.58734 | -5.56831 | 35509 ft | 473 kts | 38° |
| 2026-05-08 16:50 | 41.61101 | -5.53821 | 35173 ft | 466 kts | 38° |
| 2026-05-08 16:50 | 41.63438 | -5.50842 | 34763 ft | 463 kts | 38° |
| 2026-05-08 16:50 | 41.65761 | -5.47881 | 34386 ft | 459 kts | 37° |
| 2026-05-08 16:51 | 41.68069 | -5.44945 | 33983 ft | 455 kts | 37° |
| 2026-05-08 16:51 | 41.70356 | -5.42037 | 33557 ft | 452 kts | 37° |
| 2026-05-08 16:51 | 41.72626 | -5.39152 | 33148 ft | 448 kts | 37° |
| 2026-05-08 16:51 | 41.74875 | -5.36291 | 32776 ft | 443 kts | 37° |
| 2026-05-08 16:52 | 41.77102 | -5.33456 | 32407 ft | 438 kts | 38° |
| 2026-05-08 16:52 | 41.79278 | -5.30684 | 32032 ft | 434 kts | 38° |
| 2026-05-08 16:52 | 41.81454 | -5.27909 | 31679 ft | 430 kts | 38° |
| 2026-05-08 16:52 | 41.83617 | -5.25149 | 31299 ft | 427 kts | 38° |
| 2026-05-08 16:53 | 41.87883 | -5.19695 | 30580 ft | 420 kts | 38° |
| 2026-05-08 16:53 | 41.89986 | -5.17004 | 30229 ft | 416 kts | 38° |
| 2026-05-08 16:53 | 41.92056 | -5.14350 | 29870 ft | 413 kts | 39° |
| 2026-05-08 16:54 | 41.94124 | -5.11697 | 29480 ft | 409 kts | 39° |
| 2026-05-08 16:54 | 41.96167 | -5.09074 | 29125 ft | 404 kts | 39° |
| 2026-05-08 16:54 | 41.98184 | -5.06481 | 28753 ft | 399 kts | 39° |
| 2026-05-08 16:54 | 42.00181 | -5.03912 | 28393 ft | 395 kts | 39° |
| 2026-05-08 16:55 | 42.02156 | -5.01369 | 28026 ft | 391 kts | 40° |
| 2026-05-08 16:55 | 42.04110 | -4.98852 | 27678 ft | 387 kts | 40° |
| 2026-05-08 16:55 | 42.06045 | -4.96356 | 27319 ft | 383 kts | 40° |
| 2026-05-08 16:55 | 42.07959 | -4.93886 | 26979 ft | 380 kts | 40° |
| 2026-05-08 16:56 | 42.09861 | -4.91429 | 26612 ft | 377 kts | 41° |
| 2026-05-08 16:56 | 42.11749 | -4.88987 | 26280 ft | 374 kts | 41° |
| 2026-05-08 16:56 | 42.13597 | -4.86595 | 25920 ft | 372 kts | 41° |
| 2026-05-08 16:56 | 42.15455 | -4.84190 | 25580 ft | 369 kts | 41° |
| 2026-05-08 16:57 | 42.17301 | -4.81796 | 25240 ft | 367 kts | 42° |
| 2026-05-08 16:57 | 42.19138 | -4.79412 | 24899 ft | 365 kts | 42° |
| 2026-05-08 16:57 | 42.20965 | -4.77040 | 24559 ft | 363 kts | 42° |
| 2026-05-08 16:57 | 42.22784 | -4.74675 | 24221 ft | 361 kts | 43° |
| 2026-05-08 16:58 | 42.24590 | -4.72326 | 23887 ft | 360 kts | 43° |
| 2026-05-08 16:58 | 42.26390 | -4.69982 | 23551 ft | 359 kts | 43° |
| 2026-05-08 16:58 | 42.28161 | -4.67675 | 23171 ft | 357 kts | 43° |
| 2026-05-08 16:58 | 42.29948 | -4.65343 | 22801 ft | 355 kts | 43° |
| 2026-05-08 16:59 | 42.31719 | -4.63031 | 22469 ft | 352 kts | 43° |
| 2026-05-08 16:59 | 42.33476 | -4.60735 | 22131 ft | 350 kts | 43° |
| 2026-05-08 16:59 | 42.35224 | -4.58449 | 21784 ft | 348 kts | 43° |
| 2026-05-08 16:59 | 42.36953 | -4.56186 | 21468 ft | 345 kts | 43° |
| 2026-05-08 17:00 | 42.38679 | -4.53927 | 21134 ft | 345 kts | 44° |
| 2026-05-08 17:00 | 42.40404 | -4.51666 | 20803 ft | 345 kts | 44° |
| 2026-05-08 17:00 | 42.42138 | -4.49390 | 20469 ft | 351 kts | 44° |
| 2026-05-08 17:00 | 42.43907 | -4.47069 | 20133 ft | 357 kts | 44° |
| 2026-05-08 17:01 | 42.45667 | -4.44757 | 19784 ft | 357 kts | 44° |
| 2026-05-08 17:01 | 42.47449 | -4.42412 | 19442 ft | 355 kts | 44° |
| 2026-05-08 17:01 | 42.49216 | -4.40086 | 19092 ft | 353 kts | 44° |
| 2026-05-08 17:01 | 42.50973 | -4.37772 | 18752 ft | 352 kts | 44° |
| 2026-05-08 17:02 | 42.52722 | -4.35466 | 18425 ft | 350 kts | 44° |
| 2026-05-08 17:02 | 42.54464 | -4.33166 | 18067 ft | 348 kts | 44° |
| 2026-05-08 17:02 | 42.56201 | -4.30873 | 17685 ft | 347 kts | 44° |
| 2026-05-08 17:02 | 42.57923 | -4.28597 | 17341 ft | 344 kts | 44° |
| 2026-05-08 17:03 | 42.59631 | -4.26338 | 17012 ft | 341 kts | 44° |
| 2026-05-08 17:03 | 42.61324 | -4.24097 | 16670 ft | 339 kts | 44° |
| 2026-05-08 17:03 | 42.63002 | -4.21873 | 16351 ft | 337 kts | 44° |
| 2026-05-08 17:03 | 42.64684 | -4.19644 | 16012 ft | 335 kts | 44° |
| 2026-05-08 17:04 | 42.66343 | -4.17442 | 15685 ft | 333 kts | 44° |
| 2026-05-08 17:04 | 42.67968 | -4.15284 | 15367 ft | 331 kts | 44° |
| 2026-05-08 17:04 | 42.69620 | -4.13089 | 15045 ft | 329 kts | 44° |
| 2026-05-08 17:04 | 42.70727 | -4.11616 | 14835 ft | 328 kts | 44° |
| 2026-05-08 17:05 | 42.72885 | -4.08744 | 14408 ft | 326 kts | 44° |
| 2026-05-08 17:05 | 42.74481 | -4.06618 | 14097 ft | 325 kts | 44° |
| 2026-05-08 17:05 | 42.76121 | -4.04431 | 13775 ft | 324 kts | 44° |
| 2026-05-08 17:05 | 42.77725 | -4.02291 | 13425 ft | 322 kts | 44° |
| 2026-05-08 17:06 | 42.79324 | -4.00156 | 13087 ft | 321 kts | 45° |
| 2026-05-08 17:06 | 42.80913 | -3.98033 | 12762 ft | 319 kts | 45° |
| 2026-05-08 17:06 | 42.82489 | -3.95924 | 12444 ft | 317 kts | 44° |
| 2026-05-08 17:06 | 42.84055 | -3.93829 | 12122 ft | 315 kts | 45° |
| 2026-05-08 17:07 | 42.85613 | -3.91742 | 11820 ft | 313 kts | 45° |
| 2026-05-08 17:07 | 42.87165 | -3.89662 | 11502 ft | 312 kts | 45° |
| 2026-05-08 17:07 | 42.88707 | -3.87593 | 11193 ft | 311 kts | 45° |
| 2026-05-08 17:07 | 42.90245 | -3.85529 | 10875 ft | 310 kts | 45° |
| 2026-05-08 17:08 | 42.91751 | -3.83506 | 10559 ft | 309 kts | 45° |
| 2026-05-08 17:08 | 42.93288 | -3.81441 | 10251 ft | 307 kts | 45° |
| 2026-05-08 17:08 | 42.94805 | -3.79400 | 10011 ft | 303 kts | 45° |
| 2026-05-08 17:08 | 42.96311 | -3.77446 | 9840 ft | 297 kts | 37° |
| 2026-05-08 17:09 | 42.98169 | -3.76314 | 9634 ft | 292 kts | 9° |
| 2026-05-08 17:09 | 43.00177 | -3.76315 | 9390 ft | 290 kts | 350° |
| 2026-05-08 17:09 | 43.02188 | -3.76612 | 9079 ft | 290 kts | 0° |
| 2026-05-08 17:09 | 43.04118 | -3.75952 | 8653 ft | 294 kts | 30° |
| 2026-05-08 17:10 | 43.05653 | -3.74141 | 8355 ft | 292 kts | 52° |
| 2026-05-08 17:10 | 43.06789 | -3.71865 | 8064 ft | 289 kts | 60° |
| 2026-05-08 17:10 | 43.07797 | -3.69472 | 7742 ft | 290 kts | 63° |
| 2026-05-08 17:10 | 43.08694 | -3.67022 | 7482 ft | 286 kts | 64° |
| 2026-05-08 17:11 | 43.09644 | -3.64630 | 7233 ft | 285 kts | 61° |
| 2026-05-08 17:11 | 43.10661 | -3.62305 | 7007 ft | 284 kts | 59° |
| 2026-05-08 17:11 | 43.11712 | -3.60055 | 6744 ft | 283 kts | 58° |
| 2026-05-08 17:11 | 43.12852 | -3.57815 | 6513 ft | 283 kts | 55° |
| 2026-05-08 17:12 | 43.14042 | -3.55662 | 6255 ft | 283 kts | 53° |
| 2026-05-08 17:12 | 43.15257 | -3.53629 | 6189 ft | 275 kts | 50° |
| 2026-05-08 17:12 | 43.16527 | -3.51709 | 6177 ft | 270 kts | 47° |
| 2026-05-08 17:12 | 43.17897 | -3.49867 | 6045 ft | 281 kts | 43° |
| 2026-05-08 17:13 | 43.19383 | -3.48117 | 5990 ft | 283 kts | 40° |
| 2026-05-08 17:13 | 43.20942 | -3.46453 | 5923 ft | 283 kts | 38° |
| 2026-05-08 17:13 | 43.22543 | -3.44876 | 5890 ft | 283 kts | 36° |
| 2026-05-08 17:13 | 43.24184 | -3.43374 | 5836 ft | 284 kts | 33° |
| 2026-05-08 17:14 | 43.25886 | -3.42002 | 5735 ft | 284 kts | 29° |
| 2026-05-08 17:14 | 43.27652 | -3.40830 | 5647 ft | 283 kts | 17° |
| 2026-05-08 17:14 | 43.29575 | -3.40785 | 5567 ft | 271 kts | 340° |
| 2026-05-08 17:14 | 43.31075 | -3.42148 | 5540 ft | 252 kts | 306° |
| 2026-05-08 17:15 | 43.32028 | -3.44089 | 5482 ft | 241 kts | 300° |
| 2026-05-08 17:15 | 43.32862 | -3.46058 | 5280 ft | 241 kts | 296° |
| 2026-05-08 17:15 | 43.33630 | -3.48102 | 5027 ft | 243 kts | 292° |
| 2026-05-08 17:15 | 43.34298 | -3.50269 | 4669 ft | 242 kts | 289° |
| 2026-05-08 17:16 | 43.34866 | -3.52364 | 4317 ft | 232 kts | 288° |
| 2026-05-08 17:16 | 43.35401 | -3.54407 | 4014 ft | 221 kts | 287° |
| 2026-05-08 17:16 | 43.35913 | -3.56347 | 3724 ft | 212 kts | 288° |
| 2026-05-08 17:16 | 43.36402 | -3.58207 | 3447 ft | 202 kts | 287° |
| 2026-05-08 17:17 | 43.36868 | -3.59980 | 3190 ft | 192 kts | 287° |
| 2026-05-08 17:17 | 43.37326 | -3.61707 | 2950 ft | 192 kts | 288° |
| 2026-05-08 17:17 | 43.37765 | -3.63382 | 2672 ft | 184 kts | 288° |
| 2026-05-08 17:17 | 43.38191 | -3.64984 | 2469 ft | 175 kts | 288° |
| 2026-05-08 17:18 | 43.38605 | -3.66560 | 2211 ft | 174 kts | 289° |
| 2026-05-08 17:18 | 43.39018 | -3.68111 | 1979 ft | 173 kts | 289° |
| 2026-05-08 17:18 | 43.39421 | -3.69653 | 1767 ft | 170 kts | 289° |
| 2026-05-08 17:18 | 43.39828 | -3.71170 | 1533 ft | 168 kts | 290° |
| 2026-05-08 17:19 | 43.40221 | -3.72644 | 1347 ft | 160 kts | 290° |
| 2026-05-08 17:19 | 43.40589 | -3.74041 | 1067 ft | 150 kts | 291° |
| 2026-05-08 17:19 | 43.40932 | -3.75316 | 922 ft | 140 kts | 290° |
| 2026-05-08 17:19 | 43.41270 | -3.76602 | 643 ft | 145 kts | 291° |
| 2026-05-08 17:20 | 43.41609 | -3.77891 | 531 ft | 139 kts | 290° |
| 2026-05-08 17:20 | 43.41939 | -3.79125 | 342 ft | 143 kts | 292° |
| 2026-05-08 17:20 | 43.42282 | -3.80408 | 171 ft | 140 kts | 292° |
| 2026-05-08 17:20 | 43.42612 | -3.81645 | 21 ft | 125 kts | 290° |
| 2026-05-08 17:21 | 43.42841 | -3.82498 | 20 ft | 65 kts | 290° |
| 2026-05-08 17:21 | 43.42940 | -3.82877 | 19 ft | 32 kts | 282° |
| 2026-05-08 17:21 | 43.42872 | -3.83034 | 18 ft | 12 kts | 184° |
| 2026-05-08 17:21 | 43.42802 | -3.82984 | 18 ft | 12 kts | 123° |
| 2026-05-08 17:22 | 43.42771 | -3.82882 | 18 ft | 12 kts | 103° |
| 2026-05-08 17:22 | 43.42752 | -3.82776 | 18 ft | 11 kts | 110° |
| 2026-05-08 17:22 | 43.42720 | -3.82679 | 18 ft | 11 kts | 115° |
| 2026-05-08 17:22 | 43.42689 | -3.82574 | 20 ft | 14 kts | 107° |
| 2026-05-08 17:23 | 43.42651 | -3.82421 | 18 ft | 20 kts | 113° |
| 2026-05-08 17:23 | 43.42564 | -3.82310 | 18 ft | 19 kts | 199° |
| 2026-05-08 17:23 | 43.42444 | -3.82334 | 18 ft | 15 kts | 133° |
| 2026-05-08 17:23 | 43.42438 | -3.82227 | 18 ft | 6 kts | 149° |
| 2026-05-08 17:24 | 43.42404 | -3.82256 | 18 ft | 7 kts | 234° |
| 2026-05-08 17:24 | 43.42385 | -3.82294 | 18 ft | 0 kts | 232° |